Bodega Marine Reserve, California Weather observations

Data are for 10 minute period ending at time listed.
 Day   Time   Solar   Ave.   Ave.  Ave.  Vector  Max.   Baro.   Total    
  of    of     Rad.   Air    Rel.  Wind   Wind   Wind  Press.  Precip.   
Year   Day            Temp.  Hum.  Speed  Dir.   Gust                    
2017   (PST)  Kw/m2    F      %     mph   deg.    mph    mb.     in.     
-------------------------------------------------------------------------
 112    8:10   0.06   52.5    93    2.4   295     4.0   1014.2    0.00 
 112    8:20   0.07   52.5    92    3.3   310     5.6   1014.2    0.00 
 112    8:30   0.06   52.1    92    3.0   300     4.7   1014.2    0.00 
 112    8:40   0.08   51.9    92    1.9   323     3.1   1014.2    0.00 
 112    8:50   0.13   52.2    92    1.1   350     2.6   1014.2    0.00 
 112    9:00   0.10   52.6    92    1.1    33     3.2   1014.6    0.00 
 112    9:10   0.12   52.8    92    1.9   126     3.3   1014.6    0.00 
 112    9:20   0.17   52.8    91    1.9   133     3.1   1014.6    0.00 
 112    9:30   0.16   53.0    91    2.1   136     3.4   1014.6    0.00 
 112    9:40   0.16   53.3    90    2.2   152     3.4   1014.6    0.00 
 112    9:50   0.20   53.5    90    2.6   146     3.9   1014.6    0.00 
 112   10:00   0.21   53.7    89    3.2   143     4.2   1014.6    0.00 
 112   10:10   0.36   54.1    89    3.5   142     4.9   1014.6    0.00 
 112   10:20   0.47   54.8    87    3.8   137     5.0   1014.6    0.00 
 112   10:30   0.54   55.5    86    4.9   138     6.1   1014.9    0.00 
 112   10:40   0.60   55.6    85    5.8   134     6.9   1014.9    0.00 
 112   10:50   0.47   57.3    84    4.2   204     7.2   1015.2    0.00 
 112   11:00   0.36   57.4    82    4.8   215     7.0   1015.2    0.00 
 112   11:10   0.37   57.6    82    3.6   225     6.1   1015.2    0.00 
 112   11:20   0.30   57.3    82    4.0   232     5.7   1015.2    0.00 
 112   11:30   0.29   56.5    82    4.4   243     6.9   1015.2    0.00 
 112   11:40   0.29   56.3    83    5.9   251     8.6   1015.6    0.00 
 112   11:50   0.31   56.9    83    7.8   259    11.0   1015.6    0.00 
 112   12:00   0.30   56.7    82    9.2   257    12.1   1015.6    0.00 
 112   12:10   0.36   56.8    81    9.7   256    12.7   1015.6    0.00 
 112   12:20   0.39   57.0    81    9.5   262    13.5   1015.6    0.00 
 112   12:30   0.54   57.7    82    8.4   265    12.2   1015.2    0.00 
 112   12:40   0.63   58.5    80   10.5   274    13.9   1015.2    0.00 
 112   12:50   0.68   57.9    82   11.2   276    14.4   1015.6    0.00 
 112   13:00   0.62   58.3    81   11.4   279    14.8   1015.2    0.00 
 112   13:10   0.60   58.0    82   11.2   280    15.3   1015.2    0.01 
 112   13:20   0.51   58.2    81   10.5   284    13.6   1015.2    0.00 
 112   13:30   0.43   58.0    82   10.8   280    14.9   1015.2    0.00 
 112   13:40   0.46   57.9    83   13.1   285    17.0   1015.2    0.00 
 112   13:50   0.41   57.8    82   11.9   293    15.9   1014.9    0.00 
 112   14:00   0.42   57.7    84   10.5   285    14.2   1015.2    0.00 
 112   14:10   0.51   57.9    84   11.6   285    14.9   1015.2    0.00 
 112   14:20   0.52   58.2    84   11.1   283    14.5   1015.2    0.00 
 112   14:30   0.51   58.5    83   10.4   285    14.0   1015.2    0.00 
 112   14:40   0.47   58.3    84   10.5   290    14.8   1014.9    0.00 
 112   14:50   0.49   58.5    83   11.0   306    14.9   1014.6    0.00 
 112   15:00   0.43   58.3    83   11.5   302    15.0   1014.6    0.00 
 112   15:10   0.38   57.7    84   10.8   296    14.8   1014.2    0.00 
 112   15:20   0.35   57.6    85   11.4   285    15.6   1014.2    0.00 
 112   15:30   0.43   57.8    85   14.0   287    18.0   1014.2    0.00 
 112   15:40   0.40   58.2    84   12.6   289    16.8   1014.6    0.00 
 112   15:50   0.36   58.0    85   12.1   289    16.4   1014.6    0.00 
 112   16:00   0.32   57.8    85   13.4   295    18.0   1014.6    0.00 
 112   16:10   0.24   57.4    86   11.8   298    16.7   1014.6    0.00 
 112   16:20   0.17   57.1    86   12.1   307    16.2   1014.6    0.00 
 112   16:30   0.18   56.9    86   10.3   312    15.6   1014.2    0.00 
 112   16:40   0.15   56.7    86   10.8   313    14.3   1014.2    0.00 
 112   16:50   0.20   56.9    85   10.6   312    14.8   1013.9    0.00 
 112   17:00   0.16   56.9    85   11.8   313    16.0   1014.2    0.00 
 112   17:10   0.14   56.4    86   11.7   310    17.8   1014.2    0.00 
 112   17:20   0.28   56.8    85   14.4   308    19.9   1014.2    0.00 
 112   17:30   0.36   57.9    83   15.0   307    19.8   1014.2    0.00 
 112   17:40   0.29   57.8    82   13.9   309    20.0   1013.9    0.00 
 112   17:50   0.40   58.2    81   13.5   312    19.2   1013.9    0.00 
 112   18:00   0.25   58.0    81   15.4   304    21.0   1013.9    0.00 
 112   18:10   0.07   57.7    82   14.4   302    21.6   1013.9    0.00 
 112   18:20   0.23   57.4    82   14.1   299    21.2   1013.9    0.00 
 112   18:30   0.21   56.8    84   15.2   298    21.0   1013.5    0.00 
 112   18:40   0.18   56.4    84   15.5   297    21.0   1013.5    0.00 
 112   18:50   0.15   56.1    85   15.7   296    22.1   1013.5    0.00 
 112   19:00   0.12   55.7    86   16.3   299    23.0   1013.5    0.00 
 112   19:10   0.10   55.4    86   14.7   300    21.0   1013.5    0.00 
 112   19:20   0.07   55.1    86   15.0   298    19.6   1013.5    0.00 
 112   19:30   0.05   54.7    88   13.3   296    18.0   1013.2    0.00 
 112   19:40   0.03   54.3    89   13.8   292    19.7   1013.2    0.00 
 112   19:50   0.01   54.1    89   15.0   294    20.9   1013.2    0.00 
 112   20:00   0.00   53.8    90   15.3   296    20.0   1013.2    0.00 
 112   20:10   0.00   53.6    90   16.5   295    22.4   1013.2    0.00 
 112   20:20   0.00   53.4    89   17.0   297    22.1   1013.2    0.00 
 112   20:30   0.00   53.4    89   16.6   297    23.6   1013.5    0.00 
 112   20:40   0.00   53.4    89   17.3   293    23.5   1013.5    0.00 
 112   20:50   0.00   53.4    90   16.8   294    22.8   1013.9    0.00 
 112   21:00   0.00   53.3    90   16.2   296    21.3   1013.9    0.00 
 112   21:10   100.00  99999.0   99999  99999.0   99999   99999.0   99999.0   99999.00 
 112   21:20   100.00  99999.0   99999  99999.0   99999   99999.0   99999.0   99999.00 
 112   21:30   100.00  99999.0   99999  99999.0   99999   99999.0   99999.0   99999.00 
 112   21:40   100.00  99999.0   99999  99999.0   99999   99999.0   99999.0   99999.00 
 112   21:50   100.00  99999.0   99999  99999.0   99999   99999.0   99999.0   99999.00 
 112   22:00   0.00   52.9    90   18.0   301    24.0   1013.5    0.00 
 112   22:10   100.00  99999.0   99999  99999.0   99999   99999.0   99999.0   99999.00 
 112   22:20   100.00  99999.0   99999  99999.0   99999   99999.0   99999.0   99999.00 
 112   22:30   100.00  99999.0   99999  99999.0   99999   99999.0   99999.0   99999.00 
 112   22:40   100.00  99999.0   99999  99999.0   99999   99999.0   99999.0   99999.00 
 112   22:50   100.00  99999.0   99999  99999.0   99999   99999.0   99999.0   99999.00 
 112   23:00   100.00  99999.0   99999  99999.0   99999   99999.0   99999.0   99999.00 
 112   23:10   0.00   52.4    88   16.9   298    22.2   1013.2    0.00 
 112   23:20   0.00   52.3    88   16.4   299    22.6   1013.2    0.00 
 112   23:30   0.00   52.1    88   15.7   301    21.5   1013.2    0.00 
 112   23:40   0.00   52.0    88   15.2   305    20.4   1013.2    0.00 
 112   23:50   0.00   52.0    88   14.5   308    22.2   1013.2    0.00 
 113    0:00   0.00   52.0    88   15.2   310    19.7   1012.9    0.00 
 113    0:10   0.00   51.7    87   14.4   309    20.7   1012.9    0.00 
 113    0:20   0.00   51.6    87   14.5   304    19.1   1012.9    0.00 
 113    0:30   0.00   51.5    87   14.4   302    19.2   1012.9    0.00 
 113    0:40   0.00   51.5    88   14.8   301    18.7   1012.9    0.00 
 113    0:50   0.00   51.7    88   14.9   298    20.8   1012.9    0.00 
 113    1:00   0.00   51.7    87   15.5   296    20.4   1012.9    0.00 
 113    1:10   0.00   51.8    85   16.5   296    21.3   1012.9    0.00 
 113    1:20   0.00   51.8    84   15.3   298    21.0   1012.9    0.00 
 113    1:30   0.00   51.8    85   14.3   296    18.7   1012.9    0.00 
 113    1:40   0.00   51.8    84   14.8   296    19.5   1012.5    0.00 
 113    1:50   0.00   51.9    83   15.3   298    20.6   1012.5    0.00 
 113    2:00   0.00   52.1    84   17.3   299    22.5   1012.5    0.00 
 113    2:10   0.00   52.1    86   16.2   301    22.4   1012.5    0.00 
 113    2:20   0.00   52.0    87   17.8   302    23.2   1012.5    0.00 
 113    2:30   0.00   51.9    87   18.9   303    27.0   1012.2    0.00 
 113    2:40   0.00   51.8    86   16.9   302    25.3   1012.2    0.00 
 113    2:50   0.00   51.7    85   16.6   300    22.1   1012.2    0.00 
 113    3:00   0.00   51.8    84   16.9   301    22.5   1012.2    0.00 
 113    3:10   0.00   51.7    84   15.1   302    20.2   1012.2    0.00 
 113    3:20   0.00   51.5    84   15.9   300    20.5   1012.2    0.00 
 113    3:30   0.00   51.4    84   14.7   302    19.3   1012.2    0.00 
 113    3:40   0.00   51.3    85   15.0   301    18.9   1012.2    0.00 
 113    3:50   0.00   51.3    84   13.8   303    19.5   1012.2    0.00 
 113    4:00   0.00   51.3    84   15.2   301    19.5   1012.2    0.00 
 113    4:10   0.00   51.4    84   15.7   300    21.1   1012.2    0.00 
 113    4:20   0.00   51.3    85   16.6   301    22.6   1012.2    0.00 
 113    4:30   0.00   51.1    85   16.8   302    25.0   1012.2    0.00 
 113    4:40   0.00   51.0    86   17.2   301    23.9   1012.2    0.00 
 113    4:50   0.00   51.1    86   17.5   300    22.1   1012.2    0.00 
 113    5:00   0.00   51.0    86   17.2   302    23.3   1012.2    0.00 
 113    5:10   100.00  99999.0   99999  99999.0   99999   99999.0   99999.0   99999.00 
 113    5:20   100.00  99999.0   99999  99999.0   99999   99999.0   99999.0   99999.00 
 113    5:30   100.00  99999.0   99999  99999.0   99999   99999.0   99999.0   99999.00 
 113    5:40   100.00  99999.0   99999  99999.0   99999   99999.0   99999.0   99999.00 
 113    5:50   100.00  99999.0   99999  99999.0   99999   99999.0   99999.0   99999.00 
 113    6:00   0.00   50.7    85   16.0   304    22.1   1012.2    0.00 
 113    6:10   100.00  99999.0   99999  99999.0   99999   99999.0   99999.0   99999.00 
 113    6:20   100.00  99999.0   99999  99999.0   99999   99999.0   99999.0   99999.00 
 113    6:30   100.00  99999.0   99999  99999.0   99999   99999.0   99999.0   99999.00 
 113    6:40   100.00  99999.0   99999  99999.0   99999   99999.0   99999.0   99999.00 
 113    6:50   100.00  99999.0   99999  99999.0   99999   99999.0   99999.0   99999.00 
 113    7:00   0.02   50.1    83   10.7   302    14.7   1012.5    0.00 
 113    7:10   100.00  99999.0   99999  99999.0   99999   99999.0   99999.0   99999.00 
 113    7:20   100.00  99999.0   99999  99999.0   99999   99999.0   99999.0   99999.00 
 113    7:30   100.00  99999.0   99999  99999.0   99999   99999.0   99999.0   99999.00 
 113    7:40   100.00  99999.0   99999  99999.0   99999   99999.0   99999.0   99999.00 
 113    7:50   100.00  99999.0   99999  99999.0   99999   99999.0   99999.0   99999.00 
 113    8:00   0.21   53.6    77   11.7   295    15.5   1012.9    0.00 

Return to Bodega Marine Reserve graphs page.


Western Regional Climate Center,wrcc@dri.edu